Terminal Aerodrome Forecast
Issued by NWS

Home | Current Version | Previous Version | Text Only | Print | Product List | Glossary On
Versions: 1 2 3 4 5 6 7 8 9 10 11 12 13 14 15 16
000
FTUS45 KABQ 180536
TAFGUP
TAF
KGUP 180536Z 1806/1906 VRB03KT P6SM SCT008 BKN040
      TEMPO 1810/1814 2SM BR BKN008 OVC035
     FM181400 22003KT P6SM SCT010 BKN050
     FM181800 24010KT P6SM BKN100=

USA.gov is the U.S. government's official web portal to all federal, state and local government web resources and services.